Time;durP1;ratioP1;P1;durP2;ratioP2;P2;SDS_P1;SDS_P2;PMS_P1;PMS_P2;Temp;Humidity;BMP_temperature;BMP_pressure;BME280_temperature;BME280_humidity;BME280_pressure;Samples;Min_cycle;Max_cycle;Signal;HPM_P1;HPM_P2
2022/04/14 00:00:53;;;;;;;7.85;7.15;;;;;;;;;;4939546;29;20410;-64
2022/04/14 00:03:22;;;;;;;10.23;7.28;;;;;;;;;;4939542;29;20056;-64
2022/04/14 00:05:52;;;;;;;12.98;7.82;;;;;;;;;;4939951;29;20051;-64
2022/04/14 00:08:21;;;;;;;11.65;7.03;;;;;;;;;;4933980;29;20056;-64
2022/04/14 00:10:50;;;;;;;8.10;6.60;;;;;;;;;;4921369;29;20412;-64
2022/04/14 00:13:19;;;;;;;9.65;7.22;;;;;;;;;;4922461;29;20059;-64
2022/04/14 00:15:48;;;;;;;9.38;6.45;;;;;;;;;;4921253;29;20048;-64
2022/04/14 00:18:17;;;;;;;8.75;6.72;;;;;;;;;;4920005;29;20044;-65
2022/04/14 00:20:46;;;;;;;8.48;6.80;;;;;;;;;;4921180;29;20098;-64
2022/04/14 00:23:13;;;;;;;9.40;6.55;;;;;;;;;;4921335;29;20436;-64
2022/04/14 00:25:42;;;;;;;8.70;7.38;;;;;;;;;;4920827;29;20242;-64
2022/04/14 00:28:11;;;;;;;10.32;5.78;;;;;;;;;;4920671;29;20134;-64
2022/04/14 00:30:40;;;;;;;7.80;6.32;;;;;;;;;;4920297;29;20120;-64
2022/04/14 00:33:09;;;;;;;8.32;5.57;;;;;;;;;;4920660;29;20056;-64
2022/04/14 00:35:38;;;;;;;16.60;7.20;;;;;;;;;;4921243;29;20052;-64
2022/04/14 00:38:07;;;;;;;8.30;6.30;;;;;;;;;;4921125;29;20056;-64
2022/04/14 00:40:37;;;;;;;9.82;6.57;;;;;;;;;;4920189;29;20056;-64
2022/04/14 00:43:06;;;;;;;14.45;7.43;;;;;;;;;;4920013;29;20147;-64
2022/04/14 00:45:34;;;;;;;10.23;8.55;;;;;;;;;;4920080;29;20055;-64
2022/04/14 00:48:05;;;;;;;10.20;7.30;;;;;;;;;;4920271;29;20525;-64
2022/04/14 00:50:33;;;;;;;8.25;7.20;;;;;;;;;;4920658;29;20086;-64
2022/04/14 00:53:04;;;;;;;9.05;7.25;;;;;;;;;;4920787;29;20048;-64
2022/04/14 00:55:33;;;;;;;7.93;7.13;;;;;;;;;;4919982;29;20119;-64
2022/04/14 00:58:01;;;;;;;7.90;7.10;;;;;;;;;;4937102;29;20063;-64
2022/04/14 01:00:29;;;;;;;10.38;7.72;;;;;;;;;;4933185;29;20139;-64
2022/04/14 01:02:58;;;;;;;8.43;7.55;;;;;;;;;;4939147;29;20054;-64
2022/04/14 01:05:28;;;;;;;12.13;6.78;;;;;;;;;;4938870;29;20483;-64
2022/04/14 01:07:57;;;;;;;11.00;7.20;;;;;;;;;;4938692;29;20503;-64
2022/04/14 01:10:26;;;;;;;7.82;7.05;;;;;;;;;;4937354;29;20070;-64
2022/04/14 01:12:54;;;;;;;8.10;6.82;;;;;;;;;;4927400;29;20058;-63
2022/04/14 01:15:22;;;;;;;8.27;6.93;;;;;;;;;;4920041;29;20484;-63
2022/04/14 01:17:52;;;;;;;9.45;7.93;;;;;;;;;;4920203;29;20056;-63
2022/04/14 01:20:22;;;;;;;8.40;7.45;;;;;;;;;;4919945;29;20507;-64
2022/04/14 01:22:56;;;;;;;11.05;8.18;;;;;;;;;;4920290;29;20059;-65
2022/04/14 01:25:27;;;;;;;8.30;7.35;;;;;;;;;;4933962;29;20058;-64
2022/04/14 01:27:56;;;;;;;8.57;7.10;;;;;;;;;;4938081;29;20069;-65
2022/04/14 01:30:25;;;;;;;16.02;7.43;;;;;;;;;;4937696;29;20079;-65
2022/04/14 01:32:54;;;;;;;12.95;7.38;;;;;;;;;;4937788;29;20036;-65
2022/04/14 01:35:23;;;;;;;13.32;8.88;;;;;;;;;;4937248;29;20145;-64
2022/04/14 01:37:53;;;;;;;13.18;9.77;;;;;;;;;;4937843;29;20062;-65
2022/04/14 01:40:22;;;;;;;11.75;8.45;;;;;;;;;;4937906;29;20554;-65
2022/04/14 01:42:51;;;;;;;9.75;8.02;;;;;;;;;;4923486;29;20056;-65
2022/04/14 01:45:19;;;;;;;8.98;7.75;;;;;;;;;;4919699;29;20056;-65
2022/04/14 01:47:49;;;;;;;9.55;7.68;;;;;;;;;;4919971;29;20067;-64
2022/04/14 01:50:18;;;;;;;14.75;8.70;;;;;;;;;;4918982;29;20152;-66
2022/04/14 01:52:48;;;;;;;10.80;7.65;;;;;;;;;;4919396;29;20083;-64
2022/04/14 01:55:16;;;;;;;9.60;7.80;;;;;;;;;;4918741;29;20134;-66
2022/04/14 01:57:46;;;;;;;9.80;7.45;;;;;;;;;;4920977;29;20056;-64
2022/04/14 02:00:17;;;;;;;12.10;7.40;;;;;;;;;;4938641;29;20097;-64
2022/04/14 02:02:46;;;;;;;14.02;7.28;;;;;;;;;;4937754;29;20098;-63
2022/04/14 02:05:14;;;;;;;10.10;9.10;;;;;;;;;;4938344;29;20110;-63
2022/04/14 02:07:44;;;;;;;12.15;7.55;;;;;;;;;;4937820;29;20052;-64
2022/04/14 02:10:14;;;;;;;8.63;7.43;;;;;;;;;;4937101;29;20131;-63
2022/04/14 02:12:45;;;;;;;7.63;6.78;;;;;;;;;;4926133;29;20055;-63
2022/04/14 02:15:14;;;;;;;9.50;8.38;;;;;;;;;;4919012;29;20096;-64
2022/04/14 02:17:44;;;;;;;9.55;7.97;;;;;;;;;;4919288;29;20048;-63
2022/04/14 02:20:15;;;;;;;9.68;8.55;;;;;;;;;;4919146;29;20071;-63
2022/04/14 02:22:43;;;;;;;11.10;8.60;;;;;;;;;;4918319;29;20048;-62
2022/04/14 02:25:13;;;;;;;11.70;8.38;;;;;;;;;;4918698;29;20048;-63
2022/04/14 02:27:41;;;;;;;9.52;7.72;;;;;;;;;;4917785;29;20060;-63
2022/04/14 02:30:12;;;;;;;10.48;7.18;;;;;;;;;;4920210;29;20505;-63
2022/04/14 02:32:40;;;;;;;13.50;9.23;;;;;;;;;;4925193;29;20127;-64
2022/04/14 02:35:10;;;;;;;10.52;9.48;;;;;;;;;;4922746;29;20083;-63
2022/04/14 02:37:39;;;;;;;10.48;9.45;;;;;;;;;;4920248;29;20067;-63
2022/04/14 02:40:10;;;;;;;9.75;8.77;;;;;;;;;;4920360;29;20056;-64
2022/04/14 02:42:41;;;;;;;9.25;8.35;;;;;;;;;;4920386;29;20060;-63
2022/04/14 02:45:10;;;;;;;9.98;8.65;;;;;;;;;;4918969;29;20571;-65
2022/04/14 02:47:40;;;;;;;11.25;9.57;;;;;;;;;;4921412;29;20460;-64
2022/04/14 02:50:10;;;;;;;10.52;8.52;;;;;;;;;;4924239;29;20127;-63
2022/04/14 02:52:38;;;;;;;12.43;7.65;;;;;;;;;;4920131;29;20059;-66
2022/04/14 02:55:08;;;;;;;14.93;9.07;;;;;;;;;;4918590;29;20472;-65
2022/04/14 02:57:37;;;;;;;13.40;8.85;;;;;;;;;;4927481;29;20052;-65
2022/04/14 03:00:10;;;;;;;8.85;7.95;;;;;;;;;;4925094;29;20052;-64
2022/04/14 03:02:41;;;;;;;12.07;8.63;;;;;;;;;;4925169;29;20052;-63
2022/04/14 03:05:10;;;;;;;14.90;8.00;;;;;;;;;;4920888;29;20079;-63
2022/04/14 03:07:41;;;;;;;9.25;8.20;;;;;;;;;;4922513;29;20039;-66
2022/04/14 03:10:10;;;;;;;11.25;8.90;;;;;;;;;;4921823;29;20048;-66
2022/04/14 03:12:50;;;;;;;15.40;9.15;;;;;;;;;;4920682;29;20063;-66
2022/04/14 03:15:18;;;;;;;13.23;8.43;;;;;;;;;;4926502;29;20052;-66
2022/04/14 03:17:50;;;;;;;11.63;7.78;;;;;;;;;;4919258;29;20468;-66
2022/04/14 03:20:18;;;;;;;10.32;8.10;;;;;;;;;;4919976;29;20051;-67
2022/04/14 03:22:48;;;;;;;10.93;8.73;;;;;;;;;;4925583;29;20048;-66
2022/04/14 03:25:18;;;;;;;8.85;8.05;;;;;;;;;;4935966;29;20048;-66
2022/04/14 03:27:47;;;;;;;11.88;7.97;;;;;;;;;;4936880;29;20143;-67
2022/04/14 03:30:16;;;;;;;13.43;7.43;;;;;;;;;;4936790;29;20052;-66
2022/04/14 03:32:46;;;;;;;14.05;8.55;;;;;;;;;;4936348;29;20051;-66
2022/04/14 03:35:16;;;;;;;8.57;7.32;;;;;;;;;;4918629;29;20060;-67
2022/04/14 03:37:44;;;;;;;15.65;8.65;;;;;;;;;;4918298;29;20079;-67
2022/04/14 03:40:14;;;;;;;9.93;8.55;;;;;;;;;;4918859;29;20143;-67
2022/04/14 03:42:42;;;;;;;9.15;7.78;;;;;;;;;;4918574;29;20612;-66
2022/04/14 03:45:12;;;;;;;9.77;8.52;;;;;;;;;;4918116;29;20179;-65
2022/04/14 03:47:41;;;;;;;10.30;7.80;;;;;;;;;;4918595;29;20048;-66
2022/04/14 03:50:10;;;;;;;7.97;7.18;;;;;;;;;;4917895;29;20107;-66
2022/04/14 03:52:39;;;;;;;13.60;9.35;;;;;;;;;;4918573;29;20075;-66
2022/04/14 03:55:09;;;;;;;11.57;7.72;;;;;;;;;;4930541;29;20066;-67
2022/04/14 03:57:38;;;;;;;11.20;8.00;;;;;;;;;;4940752;29;20059;-67
2022/04/14 04:00:06;;;;;;;8.32;7.53;;;;;;;;;;4922660;29;20064;-67
2022/04/14 04:02:36;;;;;;;8.35;7.47;;;;;;;;;;4920386;29;20052;-67
2022/04/14 04:05:08;;;;;;;9.75;8.48;;;;;;;;;;4921019;29;20115;-67
2022/04/14 04:07:37;;;;;;;10.43;9.32;;;;;;;;;;4921454;29;20131;-67
2022/04/14 04:10:07;;;;;;;9.18;7.38;;;;;;;;;;4922198;29;20040;-65
2022/04/14 04:12:37;;;;;;;10.25;7.38;;;;;;;;;;4931661;29;20067;-66
2022/04/14 04:15:07;;;;;;;9.23;8.25;;;;;;;;;;4921858;29;20066;-66
2022/04/14 04:17:36;;;;;;;10.50;8.02;;;;;;;;;;4927038;29;20056;-66
2022/04/14 04:20:07;;;;;;;9.18;8.27;;;;;;;;;;4921899;29;20044;-66
2022/04/14 04:22:36;;;;;;;9.02;7.80;;;;;;;;;;4921186;29;20456;-66
2022/04/14 04:25:07;;;;;;;10.15;8.27;;;;;;;;;;4921353;29;20044;-66
2022/04/14 04:27:36;;;;;;;9.32;8.25;;;;;;;;;;4921233;29;20064;-66
2022/04/14 04:30:07;;;;;;;10.57;7.40;;;;;;;;;;4921487;29;20119;-65
2022/04/14 04:32:39;;;;;;;8.82;7.15;;;;;;;;;;4921256;29;20078;-65
2022/04/14 04:35:10;;;;;;;9.00;7.93;;;;;;;;;;4921389;29;20056;-65
2022/04/14 04:37:38;;;;;;;9.05;8.15;;;;;;;;;;4920992;29;20095;-65
2022/04/14 04:40:09;;;;;;;11.68;8.00;;;;;;;;;;4920902;29;20512;-66
2022/04/14 04:42:39;;;;;;;10.77;7.55;;;;;;;;;;4921458;29;20052;-65
2022/04/14 04:45:10;;;;;;;9.73;8.48;;;;;;;;;;4920910;29;20063;-65
2022/04/14 04:47:37;;;;;;;15.65;9.32;;;;;;;;;;4920813;29;20115;-65
2022/04/14 04:50:08;;;;;;;12.90;9.20;;;;;;;;;;4920112;29;20067;-65
2022/04/14 04:52:39;;;;;;;11.07;9.93;;;;;;;;;;4920787;29;20091;-64
2022/04/14 04:55:10;;;;;;;11.65;9.55;;;;;;;;;;4920433;29;20055;-64
2022/04/14 04:57:39;;;;;;;11.00;9.30;;;;;;;;;;4932758;29;20079;-65
2022/04/14 05:00:11;;;;;;;20.13;11.13;;;;;;;;;;4938508;29;20059;-64
2022/04/14 05:02:39;;;;;;;12.13;8.30;;;;;;;;;;4938542;29;20134;-64
2022/04/14 05:05:09;;;;;;;14.95;9.35;;;;;;;;;;4937591;29;20054;-64
2022/04/14 05:07:38;;;;;;;13.07;9.65;;;;;;;;;;4938659;29;20059;-64
2022/04/14 05:10:07;;;;;;;13.80;9.13;;;;;;;;;;4938781;29;20071;-64
2022/04/14 05:12:37;;;;;;;10.23;8.07;;;;;;;;;;4938452;29;20063;-64
2022/04/14 05:15:08;;;;;;;9.38;7.47;;;;;;;;;;4938259;29;20404;-62
2022/04/14 05:17:36;;;;;;;9.48;8.30;;;;;;;;;;4931405;29;20071;-65
2022/04/14 05:20:08;;;;;;;17.30;8.63;;;;;;;;;;4938102;29;20384;-65
2022/04/14 05:22:38;;;;;;;10.25;9.25;;;;;;;;;;4938339;29;20063;-65
2022/04/14 05:25:08;;;;;;;11.63;8.02;;;;;;;;;;4938540;29;20044;-64
2022/04/14 05:27:39;;;;;;;10.77;9.63;;;;;;;;;;4937879;29;20047;-65
2022/04/14 05:30:11;;;;;;;18.13;10.70;;;;;;;;;;4928496;29;20115;-65
2022/04/14 05:32:39;;;;;;;15.30;11.05;;;;;;;;;;4919494;29;20060;-63
2022/04/14 05:35:09;;;;;;;20.75;10.73;;;;;;;;;;4935198;29;20487;-65
2022/04/14 05:37:37;;;;;;;11.63;9.98;;;;;;;;;;4927059;29;20063;-66
2022/04/14 05:40:08;;;;;;;11.35;9.43;;;;;;;;;;4938131;29;20111;-65
2022/04/14 05:42:37;;;;;;;13.93;10.70;;;;;;;;;;4937684;29;20495;-65
2022/04/14 05:45:08;;;;;;;17.90;9.90;;;;;;;;;;4937614;29;20052;-64
2022/04/14 05:47:38;;;;;;;13.63;9.63;;;;;;;;;;4919441;29;20052;-65
2022/04/14 05:50:07;;;;;;;14.45;11.48;;;;;;;;;;4930296;29;20047;-65
2022/04/14 05:52:36;;;;;;;19.55;11.30;;;;;;;;;;4929500;29;20043;-65
2022/04/14 05:55:06;;;;;;;17.00;12.05;;;;;;;;;;4936833;29;20087;-66
2022/04/14 05:57:35;;;;;;;18.40;11.43;;;;;;;;;;4937983;29;20130;-66
2022/04/14 06:00:05;;;;;;;16.52;12.18;;;;;;;;;;4936350;29;20102;-64
2022/04/14 06:02:35;;;;;;;18.27;12.48;;;;;;;;;;4935364;29;20040;-64
2022/04/14 06:05:04;;;;;;;16.95;12.70;;;;;;;;;;4938266;29;20452;-64
2022/04/14 06:07:33;;;;;;;14.48;11.52;;;;;;;;;;4933717;29;20143;-65
2022/04/14 06:10:02;;;;;;;20.77;15.75;;;;;;;;;;4933296;29;20086;-65
2022/04/14 06:12:31;;;;;;;17.52;13.48;;;;;;;;;;4917771;29;20477;-62
2022/04/14 06:14:59;;;;;;;15.70;12.30;;;;;;;;;;4916380;29;20075;-65
2022/04/14 06:17:29;;;;;;;17.02;15.05;;;;;;;;;;4915653;29;20099;-62
2022/04/14 06:19:59;;;;;;;19.83;13.30;;;;;;;;;;4916412;29;20090;-65
2022/04/14 06:22:28;;;;;;;20.70;12.63;;;;;;;;;;4916202;29;20067;-62
2022/04/14 06:24:58;;;;;;;20.60;14.15;;;;;;;;;;4917100;29;20040;-63
2022/04/14 06:27:27;;;;;;;27.45;13.90;;;;;;;;;;4916580;29;20059;-63
2022/04/14 06:29:56;;;;;;;17.77;12.85;;;;;;;;;;4916943;29;20054;-63
2022/04/14 06:32:25;;;;;;;21.60;12.25;;;;;;;;;;4916257;29;20051;-63
2022/04/14 06:34:55;;;;;;;16.67;10.85;;;;;;;;;;4916625;29;20048;-63
2022/04/14 06:37:25;;;;;;;11.73;10.18;;;;;;;;;;4916270;29;20107;-63
2022/04/14 06:39:54;;;;;;;18.52;10.85;;;;;;;;;;4916895;29;20052;-63
2022/04/14 06:42:43;;;;;;;13.13;11.63;;;;;;;;;;4931023;29;20047;-63
2022/04/14 06:45:13;;;;;;;15.95;11.88;;;;;;;;;;4932275;29;20063;-64
2022/04/14 06:47:41;;;;;;;14.45;11.88;;;;;;;;;;4916645;29;20078;-63
2022/04/14 06:50:11;;;;;;;15.55;11.52;;;;;;;;;;4916729;29;20559;-63
2022/04/14 06:52:40;;;;;;;17.80;11.52;;;;;;;;;;4916880;29;20408;-64
2022/04/14 06:55:10;;;;;;;16.67;10.63;;;;;;;;;;4916440;29;20055;-63
2022/04/14 06:57:40;;;;;;;16.77;11.15;;;;;;;;;;4916148;29;20048;-63
2022/04/14 07:00:12;;;;;;;19.45;12.70;;;;;;;;;;4920294;29;20060;-63
2022/04/14 07:02:52;;;;;;;17.75;12.32;;;;;;;;;;4916701;29;20055;-63
2022/04/14 07:05:22;;;;;;;17.45;14.45;;;;;;;;;;4916573;29;20482;-63
2022/04/14 07:07:52;;;;;;;19.65;14.48;;;;;;;;;;4916650;29;20048;-63
2022/04/14 07:10:27;;;;;;;20.65;14.88;;;;;;;;;;4918501;29;20087;-63
2022/04/14 07:12:55;;;;;;;16.80;13.87;;;;;;;;;;4916762;29;20055;-63
2022/04/14 07:15:24;;;;;;;21.45;14.35;;;;;;;;;;4915940;29;20783;-62
2022/04/14 07:17:53;;;;;;;13.43;11.60;;;;;;;;;;4926223;29;20047;-63
2022/04/14 07:20:22;;;;;;;13.77;11.60;;;;;;;;;;4931385;29;20047;-62
2022/04/14 07:22:52;;;;;;;13.70;11.25;;;;;;;;;;4928282;29;20075;-63
2022/04/14 07:25:24;;;;;;;10.75;8.48;;;;;;;;;;4934435;29;20498;-63
2022/04/14 07:27:53;;;;;;;11.05;9.13;;;;;;;;;;4935570;29;20211;-63
2022/04/14 07:30:26;;;;;;;11.75;8.45;;;;;;;;;;4939119;29;20075;-63
2022/04/14 07:32:56;;;;;;;10.90;9.27;;;;;;;;;;4938174;29;20118;-63
2022/04/14 07:35:25;;;;;;;11.63;9.00;;;;;;;;;;4938344;29;20123;-63
2022/04/14 07:37:55;;;;;;;18.02;10.00;;;;;;;;;;4938332;29;20052;-63
2022/04/14 07:40:25;;;;;;;13.32;9.95;;;;;;;;;;4931168;29;20110;-63
2022/04/14 07:42:56;;;;;;;11.77;8.90;;;;;;;;;;4935179;29;20077;-64
2022/04/14 07:45:26;;;;;;;12.93;10.40;;;;;;;;;;4937194;29;20431;-63
2022/04/14 07:47:55;;;;;;;9.65;8.75;;;;;;;;;;4927073;29;20405;-64
2022/04/14 07:50:25;;;;;;;11.50;9.52;;;;;;;;;;4921961;29;20451;-63
2022/04/14 07:52:55;;;;;;;11.75;9.13;;;;;;;;;;4926917;29;20063;-64
2022/04/14 07:55:30;;;;;;;16.45;8.80;;;;;;;;;;4930060;29;20127;-64
2022/04/14 07:58:07;;;;;;;10.15;7.70;;;;;;;;;;4918654;29;20048;-64
2022/04/14 08:00:37;;;;;;;10.13;7.68;;;;;;;;;;4926408;29;20130;-64
2022/04/14 08:03:07;;;;;;;14.63;7.80;;;;;;;;;;4925346;29;20040;-64
2022/04/14 08:05:59;;;;;;;12.73;8.07;;;;;;;;;;4919427;29;20048;-64
2022/04/14 08:08:31;;;;;;;8.85;7.97;;;;;;;;;;4919258;29;20079;-63
2022/04/14 08:11:03;;;;;;;8.32;7.53;;;;;;;;;;4919269;29;20048;-64
2022/04/14 08:13:40;;;;;;;10.45;7.65;;;;;;;;;;4919023;29;20048;-64
2022/04/14 08:16:10;;;;;;;9.40;8.05;;;;;;;;;;4918657;29;20496;-64
2022/04/14 08:18:41;;;;;;;13.60;8.23;;;;;;;;;;4919291;29;20084;-64
2022/04/14 08:21:10;;;;;;;10.50;9.18;;;;;;;;;;4919349;29;20466;-64
2022/04/14 08:23:39;;;;;;;8.80;7.93;;;;;;;;;;4930184;29;20082;-64
2022/04/14 08:26:09;;;;;;;10.55;7.60;;;;;;;;;;4918880;29;20070;-64
2022/04/14 08:28:45;;;;;;;9.45;8.52;;;;;;;;;;4928184;29;20571;-63
2022/04/14 08:31:13;;;;;;;13.93;7.63;;;;;;;;;;4918838;29;20059;-63
2022/04/14 08:33:43;;;;;;;9.77;7.97;;;;;;;;;;4918884;29;20114;-63
2022/04/14 08:36:19;;;;;;;8.43;7.30;;;;;;;;;;4929832;29;20063;-62
2022/04/14 08:38:50;;;;;;;9.38;8.48;;;;;;;;;;4921080;29;20496;-63
2022/04/14 08:41:21;;;;;;;8.85;8.05;;;;;;;;;;4928667;29;20060;-63
2022/04/14 08:44:01;;;;;;;7.93;7.13;;;;;;;;;;4932707;29;20139;-63
2022/04/14 08:46:30;;;;;;;9.63;8.55;;;;;;;;;;4938877;29;20075;-63
2022/04/14 08:48:59;;;;;;;9.13;7.80;;;;;;;;;;4939404;29;20110;-63
2022/04/14 08:51:35;;;;;;;8.45;7.15;;;;;;;;;;4939398;29;20056;-63
2022/04/14 08:54:06;;;;;;;22.80;8.48;;;;;;;;;;4939085;29;20048;-63
2022/04/14 08:56:36;;;;;;;12.25;8.50;;;;;;;;;;4938583;29;20419;-63
2022/04/14 08:59:04;;;;;;;9.45;7.00;;;;;;;;;;4939354;29;20061;-63
2022/04/14 09:01:34;;;;;;;11.13;7.82;;;;;;;;;;4938255;29;20051;-63
2022/04/14 09:04:04;;;;;;;7.90;6.53;;;;;;;;;;4939444;29;20479;-63
2022/04/14 09:06:33;;;;;;;7.88;6.88;;;;;;;;;;4939300;29;20562;-63
2022/04/14 09:09:01;;;;;;;10.38;6.40;;;;;;;;;;4937467;29;20102;-63
2022/04/14 09:11:30;;;;;;;6.80;6.20;;;;;;;;;;4939138;29;20083;-63
2022/04/14 09:14:00;;;;;;;9.23;5.43;;;;;;;;;;4934523;29;20044;-64
2022/04/14 09:16:34;;;;;;;13.90;5.63;;;;;;;;;;4931443;29;20082;-63
2022/04/14 09:19:15;;;;;;;7.47;5.57;;;;;;;;;;4918223;29;20062;-64
2022/04/14 09:22:08;;;;;;;6.57;5.95;;;;;;;;;;4917635;29;20100;-64
2022/04/14 09:25:05;;;;;;;7.63;5.90;;;;;;;;;;4919271;29;20035;-63
2022/04/14 09:27:37;;;;;;;8.65;4.95;;;;;;;;;;4934786;29;20095;-64
2022/04/14 09:30:07;;;;;;;8.57;5.00;;;;;;;;;;4935909;29;20056;-64
2022/04/14 09:32:42;;;;;;;29.75;5.68;;;;;;;;;;4935316;29;20086;-64
2022/04/14 09:35:21;;;;;;;11.95;5.72;;;;;;;;;;4919874;29;20044;-64
2022/04/14 09:38:06;;;;;;;7.25;5.25;;;;;;;;;;4917236;29;20056;-64
2022/04/14 09:40:37;;;;;;;11.43;5.25;;;;;;;;;;4930561;29;20393;-64
2022/04/14 09:43:06;;;;;;;5.80;4.90;;;;;;;;;;4933597;29;20040;-64
2022/04/14 09:45:35;;;;;;;13.25;5.75;;;;;;;;;;4917323;29;20052;-63
2022/04/14 09:48:10;;;;;;;7.30;5.43;;;;;;;;;;4917355;29;20055;-63
2022/04/14 09:50:43;;;;;;;10.95;5.38;;;;;;;;;;4916737;29;20056;-63
2022/04/14 09:53:21;;;;;;;7.82;5.20;;;;;;;;;;4917303;29;20051;-63
2022/04/14 09:55:49;;;;;;;8.88;5.18;;;;;;;;;;4916896;29;20044;-63
2022/04/14 09:58:22;;;;;;;7.75;4.93;;;;;;;;;;4916527;29;20055;-63
2022/04/14 10:00:55;;;;;;;10.73;4.60;;;;;;;;;;4917090;29;20048;-63
2022/04/14 10:03:31;;;;;;;9.93;5.07;;;;;;;;;;4929428;29;20060;-63
2022/04/14 10:06:06;;;;;;;6.22;5.43;;;;;;;;;;4935156;29;20083;-64
2022/04/14 10:08:51;;;;;;;9.02;5.38;;;;;;;;;;4935187;29;20539;-64
2022/04/14 10:11:32;;;;;;;9.05;5.72;;;;;;;;;;4935245;29;20077;-64
2022/04/14 10:14:13;;;;;;;11.52;4.93;;;;;;;;;;4934940;29;20059;-64
2022/04/14 10:16:42;;;;;;;11.13;5.68;;;;;;;;;;4930711;29;20515;-64
2022/04/14 10:19:12;;;;;;;7.22;5.30;;;;;;;;;;4917105;29;20070;-64
2022/04/14 10:21:43;;;;;;;11.30;5.90;;;;;;;;;;4916758;29;20126;-64
2022/04/14 10:24:15;;;;;;;9.52;6.03;;;;;;;;;;4930607;29;20051;-64
2022/04/14 10:26:46;;;;;;;11.32;6.07;;;;;;;;;;4934568;29;20083;-64
2022/04/14 10:29:15;;;;;;;6.82;5.70;;;;;;;;;;4934883;29;20063;-64
2022/04/14 10:31:43;;;;;;;6.90;4.95;;;;;;;;;;4934704;29;20055;-64
2022/04/14 10:34:15;;;;;;;5.93;4.68;;;;;;;;;;4933809;29;20131;-64
2022/04/14 10:36:45;;;;;;;7.72;4.53;;;;;;;;;;4934258;29;20747;-63
2022/04/14 10:39:15;;;;;;;6.80;4.65;;;;;;;;;;4916823;29;20071;-63
2022/04/14 10:41:47;;;;;;;9.48;5.13;;;;;;;;;;4916537;29;20076;-63
2022/04/14 10:44:20;;;;;;;;;;;;;;;;;;4922570;29;20075;-64
2022/04/14 10:46:56;;;;;;;5.97;3.20;;;;;;;;;;4916259;29;19970;-64
2022/04/14 10:49:26;;;;;;;5.03;3.90;;;;;;;;;;4916309;29;20083;-63
2022/04/14 10:51:57;;;;;;;12.27;4.97;;;;;;;;;;4916099;29;20052;-64
2022/04/14 10:54:26;;;;;;;6.45;4.07;;;;;;;;;;4930002;29;20075;-63
2022/04/14 10:56:55;;;;;;;5.72;4.47;;;;;;;;;;4933421;29;20052;-63
2022/04/14 10:59:35;;;;;;;10.23;4.75;;;;;;;;;;4934095;29;20056;-64
2022/04/14 11:02:05;;;;;;;5.95;4.80;;;;;;;;;;4934309;29;20067;-64
2022/04/14 11:04:50;;;;;;;6.47;4.38;;;;;;;;;;4933553;29;20111;-64
2022/04/14 11:07:22;;;;;;;6.50;5.13;;;;;;;;;;4934574;29;20754;-63
2022/04/14 11:10:01;;;;;;;5.65;4.70;;;;;;;;;;4934425;29;20071;-63
2022/04/14 11:12:40;;;;;;;6.47;4.72;;;;;;;;;;4933749;29;20511;-63
2022/04/14 11:15:12;;;;;;;9.77;4.55;;;;;;;;;;4934222;29;20051;-63
2022/04/14 11:17:48;;;;;;;6.38;4.43;;;;;;;;;;4934954;29;20483;-62
2022/04/14 11:20:30;;;;;;;5.35;4.03;;;;;;;;;;4929400;29;20039;-63
2022/04/14 11:23:24;;;;;;;6.57;3.67;;;;;;;;;;4934768;29;20120;-64
2022/04/14 11:26:06;;;;;;;7.30;5.53;;;;;;;;;;4934414;29;20106;-63
2022/04/14 11:28:57;;;;;;;8.90;4.90;;;;;;;;;;4934353;29;20103;-63
2022/04/14 11:31:27;;;;;;;7.28;4.95;;;;;;;;;;4934123;29;20134;-63
2022/04/14 11:33:58;;;;;;;8.82;4.45;;;;;;;;;;4916674;29;20052;-64
2022/04/14 11:36:41;;;;;;;6.82;4.72;;;;;;;;;;4915811;29;20055;-63
2022/04/14 11:39:23;;;;;;;8.73;5.43;;;;;;;;;;4928884;29;20687;-63
2022/04/14 11:41:54;;;;;;;6.72;5.40;;;;;;;;;;4932631;29;20059;-63
2022/04/14 11:44:30;;;;;;;7.80;5.07;;;;;;;;;;4933885;29;20095;-62
2022/04/14 11:47:01;;;;;;;11.27;4.97;;;;;;;;;;4934185;29;20044;-63
2022/04/14 11:49:32;;;;;;;7.85;6.20;;;;;;;;;;4934320;29;20070;-63
2022/04/14 11:52:05;;;;;;;7.65;4.55;;;;;;;;;;4934008;29;20051;-63
2022/04/14 11:54:36;;;;;;;7.80;6.10;;;;;;;;;;4921980;29;20134;-63
2022/04/14 11:57:11;;;;;;;8.18;6.03;;;;;;;;;;4916140;29;20052;-62
2022/04/14 11:59:46;;;;;;;7.28;5.55;;;;;;;;;;4916288;29;20126;-63
2022/04/14 12:02:19;;;;;;;16.77;6.05;;;;;;;;;;4915568;29;20063;-62
2022/04/14 12:04:54;;;;;;;7.25;5.18;;;;;;;;;;4915813;29;20055;-63
2022/04/14 12:07:30;;;;;;;9.05;6.40;;;;;;;;;;4915716;29;20055;-62
2022/04/14 12:10:09;;;;;;;9.07;6.55;;;;;;;;;;4915466;29;20091;-62
2022/04/14 12:12:38;;;;;;;6.15;5.28;;;;;;;;;;4928259;29;20071;-63
2022/04/14 12:15:08;;;;;;;9.73;6.20;;;;;;;;;;4916060;29;20059;-63
2022/04/14 12:17:38;;;;;;;8.25;6.20;;;;;;;;;;4919322;29;20500;-63
2022/04/14 12:20:08;;;;;;;6.65;5.82;;;;;;;;;;4919062;29;20087;-63
2022/04/14 12:22:37;;;;;;;7.93;6.07;;;;;;;;;;4919098;29;20080;-63
2022/04/14 12:25:09;;;;;;;13.38;6.32;;;;;;;;;;4919101;29;20048;-63
2022/04/14 12:27:38;;;;;;;6.82;5.95;;;;;;;;;;4919026;29;20059;-63
2022/04/14 12:30:15;;;;;;;9.02;7.32;;;;;;;;;;4919136;29;20060;-63
2022/04/14 12:32:48;;;;;;;8.15;7.20;;;;;;;;;;4919234;29;20052;-63
2022/04/14 12:35:36;;;;;;;12.02;7.07;;;;;;;;;;4918885;29;20060;-63
2022/04/14 12:38:25;;;;;;;10.52;7.38;;;;;;;;;;4931794;29;20491;-63
2022/04/14 12:40:59;;;;;;;8.90;7.05;;;;;;;;;;4936990;29;20195;-63
2022/04/14 12:43:39;;;;;;;8.25;7.30;;;;;;;;;;4937122;29;20047;-63
2022/04/14 12:46:55;;;;;;;8.10;6.90;;;;;;;;;;4936929;29;20062;-63
2022/04/14 12:49:34;;;;;;;8.90;6.40;;;;;;;;;;4918451;29;20071;-63
2022/04/14 12:52:06;;;;;;;15.02;8.13;;;;;;;;;;4931339;29;20048;-63
2022/04/14 12:54:44;;;;;;;;;;;;;;;;;;4937271;29;20084;-63
2022/04/14 12:57:18;;;;;;;8.95;7.38;;;;;;;;;;4936711;28;20342;-63
2022/04/14 13:00:10;;;;;;;10.15;6.07;;;;;;;;;;4936723;29;20530;-63
2022/04/14 13:02:42;;;;;;;11.98;7.10;;;;;;;;;;4936768;29;20051;-63
2022/04/14 13:05:37;;;;;;;10.43;6.30;;;;;;;;;;4937001;29;20043;-63
2022/04/14 13:08:06;;;;;;;9.20;4.97;;;;;;;;;;4936184;29;20134;-64
2022/04/14 13:10:45;;;;;;;7.40;4.90;;;;;;;;;;4936408;29;20051;-63
2022/04/14 13:13:32;;;;;;;10.02;4.50;;;;;;;;;;4936671;29;20047;-63
2022/04/14 13:16:02;;;;;;;6.90;4.75;;;;;;;;;;4936409;29;20199;-63
2022/04/14 13:18:31;;;;;;;6.78;4.78;;;;;;;;;;4936799;29;20135;-63
2022/04/14 13:21:00;;;;;;;10.07;4.85;;;;;;;;;;4936169;29;20056;-63
2022/04/14 13:23:30;;;;;;;6.68;4.07;;;;;;;;;;4936215;29;20550;-64
2022/04/14 13:26:01;;;;;;;5.93;3.25;;;;;;;;;;4935584;29;20071;-63
2022/04/14 13:28:30;;;;;;;7.47;3.35;;;;;;;;;;4936400;29;20095;-64
2022/04/14 13:31:03;;;;;;;9.52;4.57;;;;;;;;;;4930800;29;20051;-64
2022/04/14 13:33:32;;;;;;;6.00;3.90;;;;;;;;;;4917879;29;20052;-63
2022/04/14 13:36:00;;;;;;;6.35;4.22;;;;;;;;;;4917333;29;20052;-64
2022/04/14 13:38:30;;;;;;;9.32;4.13;;;;;;;;;;4917873;29;20522;-63
2022/04/14 13:40:59;;;;;;;5.70;4.07;;;;;;;;;;4917479;29;20048;-64
2022/04/14 13:43:28;;;;;;;6.43;3.33;;;;;;;;;;4917168;29;20508;-64
2022/04/14 13:45:56;;;;;;;8.88;4.55;;;;;;;;;;4923463;29;20048;-63
2022/04/14 13:48:25;;;;;;;7.50;3.60;;;;;;;;;;4923493;29;20076;-63
2022/04/14 13:50:55;;;;;;;7.15;3.95;;;;;;;;;;4917491;29;20531;-63
2022/04/14 13:53:24;;;;;;;6.97;3.78;;;;;;;;;;4917124;29;20052;-63
2022/04/14 13:55:54;;;;;;;5.10;3.80;;;;;;;;;;4917360;29;20059;-63
2022/04/14 13:58:25;;;;;;;6.22;4.03;;;;;;;;;;4917252;29;20056;-63
2022/04/14 14:00:55;;;;;;;6.93;3.75;;;;;;;;;;4917494;29;20084;-64
2022/04/14 14:03:24;;;;;;;6.18;2.95;;;;;;;;;;4917080;29;20108;-63
2022/04/14 14:05:53;;;;;;;4.72;3.13;;;;;;;;;;4931870;29;20059;-63
2022/04/14 14:08:23;;;;;;;6.10;3.38;;;;;;;;;;4935436;29;20555;-64
2022/04/14 14:10:53;;;;;;;6.63;3.70;;;;;;;;;;4934797;29;20056;-63
2022/04/14 14:13:23;;;;;;;5.43;4.05;;;;;;;;;;4935243;29;20066;-63
2022/04/14 14:15:54;;;;;;;5.50;3.25;;;;;;;;;;4935475;29;20051;-64
2022/04/14 14:18:24;;;;;;;9.18;4.97;;;;;;;;;;4931183;29;20119;-63
2022/04/14 14:20:54;;;;;;;9.90;5.07;;;;;;;;;;4916769;29;20052;-63
2022/04/14 14:23:22;;;;;;;5.57;4.25;;;;;;;;;;4916973;29;20051;-63
2022/04/14 14:25:52;;;;;;;8.57;4.35;;;;;;;;;;4929450;29;20055;-64
2022/04/14 14:28:21;;;;;;;6.72;4.50;;;;;;;;;;4916768;29;20051;-63
2022/04/14 14:30:49;;;;;;;8.23;4.82;;;;;;;;;;4916622;29;20062;-63
2022/04/14 14:33:18;;;;;;;7.68;4.60;;;;;;;;;;4916749;29;20056;-63
2022/04/14 14:35:47;;;;;;;7.05;5.47;;;;;;;;;;4916174;29;20496;-63
2022/04/14 14:38:16;;;;;;;7.85;4.93;;;;;;;;;;4916021;29;20464;-63
2022/04/14 14:40:44;;;;;;;12.73;5.13;;;;;;;;;;4934692;29;20416;-63
2022/04/14 14:43:12;;;;;;;9.02;5.47;;;;;;;;;;4935097;29;20612;-63
2022/04/14 14:45:47;;;;;;;8.77;6.05;;;;;;;;;;4916034;29;20060;-63
2022/04/14 14:48:16;;;;;;;6.93;5.18;;;;;;;;;;4916457;29;20578;-63
2022/04/14 14:50:44;;;;;;;6.85;5.15;;;;;;;;;;4916447;29;20051;-63
2022/04/14 14:53:14;;;;;;;11.13;5.47;;;;;;;;;;4916640;29;20044;-63
2022/04/14 14:55:41;;;;;;;7.70;4.43;;;;;;;;;;4916448;29;20055;-63
2022/04/14 15:00:57;;;;;;;6.75;4.00;;;;;;;;;;4916319;29;20052;-63
2022/04/14 15:03:27;;;;;;;9.75;4.32;;;;;;;;;;4916485;29;20071;-64